createdAt,value
2019-01-24T00:00:15.914Z,88.0
2019-01-24T00:01:15.969Z,87.7
2019-01-24T00:02:16.236Z,87.7
2019-01-24T00:03:15.496Z,87.9
2019-01-24T00:04:17.100Z,87.9
2019-01-24T00:05:15.370Z,88.2
2019-01-24T00:06:15.640Z,87.9
2019-01-24T00:07:15.917Z,87.8
2019-01-24T00:08:16.175Z,88.0
2019-01-24T00:09:15.453Z,88.3
2019-01-24T00:10:15.722Z,88.0
2019-01-24T00:11:15.782Z,88.1
2019-01-24T00:12:16.038Z,88.2
2019-01-24T00:13:16.304Z,88.2
2019-01-24T00:14:15.587Z,87.9
2019-01-24T00:15:15.849Z,87.8
2019-01-24T00:16:16.203Z,87.8
2019-01-24T00:17:15.497Z,87.8
2019-01-24T00:18:15.823Z,87.5
2019-01-24T00:19:16.292Z,87.6
2019-01-24T00:20:15.565Z,87.8
2019-01-24T00:21:15.612Z,87.9
2019-01-24T00:22:15.879Z,87.8
2019-01-24T00:23:16.138Z,87.8
2019-01-24T00:24:15.410Z,88.2
2019-01-24T00:25:15.680Z,88.0
2019-01-24T00:26:15.949Z,87.9
2019-01-24T00:27:16.217Z,88.3
2019-01-24T00:28:15.490Z,88.3
2019-01-24T00:29:15.767Z,88.3
2019-01-24T00:30:16.042Z,88.5
2019-01-24T00:31:16.094Z,88.0
2019-01-24T00:32:15.355Z,88.0
2019-01-24T00:33:15.621Z,87.9
2019-01-24T00:34:15.894Z,88.3
2019-01-24T00:35:16.446Z,88.2
2019-01-24T00:36:15.706Z,88.0
2019-01-24T00:37:15.962Z,87.5
2019-01-24T00:38:16.229Z,87.7
2019-01-24T00:39:15.498Z,87.8
2019-01-24T00:40:15.782Z,87.5
2019-01-24T00:41:15.993Z,87.6
2019-01-24T00:42:16.268Z,87.7
2019-01-24T00:43:15.537Z,87.8
2019-01-24T00:44:15.794Z,87.9
2019-01-24T00:45:16.071Z,88.0
2019-01-24T00:46:15.335Z,87.9
2019-01-24T00:47:15.598Z,87.3
2019-01-24T00:48:15.869Z,87.5
2019-01-24T00:49:16.132Z,87.6
2019-01-24T00:50:15.415Z,87.8
2019-01-24T00:51:15.466Z,87.8
2019-01-24T00:52:15.727Z,87.8
2019-01-24T00:53:16.015Z,87.8
2019-01-24T00:54:16.282Z,87.7
2019-01-24T00:55:15.546Z,87.8
2019-01-24T00:56:15.816Z,87.7
2019-01-24T00:57:16.082Z,87.8
2019-01-24T00:58:15.342Z,87.7
2019-01-24T00:59:15.600Z,87.5
2019-01-24T01:00:15.889Z,87.7
2019-01-24T01:01:15.909Z,87.8
2019-01-24T01:02:16.185Z,88.0
2019-01-24T01:03:15.451Z,88.2
2019-01-24T01:04:15.717Z,88.0
2019-01-24T01:05:16.162Z,88.1
2019-01-24T01:06:15.433Z,88.0
2019-01-24T01:07:15.695Z,87.8
2019-01-24T01:08:15.956Z,87.7
2019-01-24T01:09:16.207Z,87.8
2019-01-24T01:10:15.492Z,87.7
2019-01-24T01:11:15.542Z,87.9
2019-01-24T01:12:15.808Z,88.1
2019-01-24T01:13:16.079Z,88.0
2019-01-24T01:14:15.351Z,88.0
2019-01-24T01:15:15.613Z,87.8
2019-01-24T01:16:15.878Z,87.6
2019-01-24T01:17:16.137Z,87.8
2019-01-24T01:18:15.412Z,88.0
2019-01-24T01:19:15.685Z,88.0
2019-01-24T01:20:15.976Z,88.0
2019-01-24T01:21:16.039Z,88.2
2019-01-24T01:22:16.309Z,88.3
2019-01-24T01:23:15.570Z,88.8
2019-01-24T01:24:15.845Z,88.5
2019-01-24T01:25:16.120Z,88.7
2019-01-24T01:26:15.381Z,88.5
2019-01-24T01:27:15.651Z,88.3
2019-01-24T01:28:15.920Z,88.2
2019-01-24T01:29:16.182Z,88.0
2019-01-24T01:30:15.459Z,87.8
2019-01-24T01:31:15.520Z,87.6
2019-01-24T01:32:15.783Z,87.5
2019-01-24T01:33:16.037Z,87.7
2019-01-24T01:34:16.305Z,87.9
2019-01-24T01:35:15.572Z,88.2
2019-01-24T01:36:15.843Z,88.0
2019-01-24T01:37:16.100Z,88.2
2019-01-24T01:38:15.367Z,88.2
2019-01-24T01:39:15.624Z,88.0
2019-01-24T01:40:15.896Z,87.9
2019-01-24T01:41:16.203Z,87.9
2019-01-24T01:42:15.468Z,87.7
2019-01-24T01:43:15.729Z,87.7
2019-01-24T01:44:15.992Z,87.7
2019-01-24T01:45:16.260Z,87.5
2019-01-24T01:46:15.536Z,88.0
2019-01-24T01:47:15.809Z,88.1
2019-01-24T01:48:16.072Z,87.8
2019-01-24T01:49:15.331Z,87.7
2019-01-24T01:50:15.598Z,87.8
2019-01-24T01:51:15.657Z,87.5
2019-01-24T01:52:15.930Z,87.6
2019-01-24T01:53:16.189Z,87.4
2019-01-24T01:54:15.444Z,87.4
2019-01-24T01:55:15.709Z,87.2
2019-01-24T01:56:15.967Z,87.2
2019-01-24T01:57:16.230Z,87.5
2019-01-24T01:58:15.497Z,87.5
2019-01-24T01:59:15.759Z,87.4
2019-01-24T02:00:16.028Z,87.6
2019-01-24T02:01:16.087Z,87.7
2019-01-24T02:02:15.353Z,87.4
2019-01-24T02:03:15.608Z,87.2
2019-01-24T02:04:15.868Z,87.5
2019-01-24T02:05:16.138Z,87.5
2019-01-24T02:06:15.404Z,87.4
2019-01-24T02:07:15.671Z,87.7
2019-01-24T02:08:15.939Z,87.7
2019-01-24T02:09:16.207Z,87.6
2019-01-24T02:10:15.490Z,87.4
2019-01-24T02:11:15.545Z,87.5
2019-01-24T02:12:15.812Z,87.6
2019-01-24T02:13:16.085Z,87.2
2019-01-24T02:14:15.353Z,87.3
2019-01-24T02:15:15.629Z,87.3
2019-01-24T02:16:15.892Z,87.3
2019-01-24T02:17:16.159Z,87.7
2019-01-24T02:18:15.422Z,87.8
2019-01-24T02:19:15.677Z,87.5
2019-01-24T02:20:15.955Z,87.7
2019-01-24T02:21:15.995Z,87.5
2019-01-24T02:22:16.255Z,87.5
2019-01-24T02:23:15.518Z,87.3
2019-01-24T02:24:15.782Z,87.5
2019-01-24T02:25:16.060Z,87.8
2019-01-24T02:26:15.328Z,87.8
2019-01-24T02:27:15.592Z,87.9
2019-01-24T02:28:15.859Z,87.8
2019-01-24T02:29:16.112Z,87.7
2019-01-24T02:30:15.382Z,87.9
2019-01-24T02:31:15.423Z,88.2
2019-01-24T02:32:15.689Z,87.8
2019-01-24T02:33:15.953Z,87.7
2019-01-24T02:34:16.217Z,87.6
2019-01-24T02:35:15.487Z,87.7
2019-01-24T02:36:15.757Z,87.8
2019-01-24T02:37:16.042Z,87.7
2019-01-24T02:38:16.311Z,87.8
2019-01-24T02:39:15.577Z,87.7
2019-01-24T02:40:15.858Z,87.4
2019-01-24T02:41:15.878Z,87.7
2019-01-24T02:42:16.171Z,87.8
2019-01-24T02:43:15.434Z,88.0
2019-01-24T02:44:15.706Z,88.2
2019-01-24T02:45:16.005Z,88.0
2019-01-24T02:46:16.290Z,88.1
2019-01-24T02:47:15.565Z,88.1
2019-01-24T02:48:15.845Z,87.8
2019-01-24T02:49:16.123Z,87.8
2019-01-24T02:50:15.403Z,88.1
2019-01-24T02:51:15.451Z,88.0
2019-01-24T02:52:15.721Z,88.2
2019-01-24T02:53:15.989Z,87.9
2019-01-24T02:54:16.251Z,88.1
2019-01-24T02:55:15.526Z,88.0
2019-01-24T02:56:15.796Z,88.0
2019-01-24T02:57:16.057Z,88.1
2019-01-24T02:58:15.330Z,88.2
2019-01-24T02:59:15.618Z,88.2
2019-01-24T03:00:15.891Z,88.2
2019-01-24T03:01:15.937Z,88.2
2019-01-24T03:02:16.212Z,88.3
2019-01-24T03:03:15.484Z,88.1
2019-01-24T03:04:15.749Z,88.2
2019-01-24T03:05:16.019Z,88.2
2019-01-24T03:06:16.278Z,88.2
2019-01-24T03:07:15.542Z,88.0
2019-01-24T03:08:15.806Z,88.1
2019-01-24T03:09:16.079Z,88.0
2019-01-24T03:10:15.366Z,88.0
2019-01-24T03:11:15.398Z,88.1
2019-01-24T03:12:15.660Z,88.5
2019-01-24T03:13:15.926Z,88.3
2019-01-24T03:14:16.184Z,88.0
2019-01-24T03:15:15.490Z,87.8
2019-01-24T03:16:15.753Z,87.9
2019-01-24T03:17:16.036Z,87.8
2019-01-24T03:18:16.335Z,87.8
2019-01-24T03:19:15.595Z,87.8
2019-01-24T03:20:15.868Z,87.9
2019-01-24T03:21:15.917Z,88.0
2019-01-24T03:22:16.212Z,88.2
2019-01-24T03:23:15.475Z,88.5
2019-01-24T03:24:15.745Z,88.5
2019-01-24T03:25:16.017Z,88.2
2019-01-24T03:26:16.301Z,88.2
2019-01-24T03:27:15.576Z,88.2
2019-01-24T03:28:15.835Z,88.2
2019-01-24T03:29:16.101Z,88.3
2019-01-24T03:30:15.380Z,88.3
2019-01-24T03:31:15.454Z,88.3
2019-01-24T03:32:15.738Z,88.3
2019-01-24T03:33:16.519Z,88.5
2019-01-24T03:34:15.793Z,88.3
2019-01-24T03:35:16.052Z,88.3
2019-01-24T03:36:15.313Z,88.4
2019-01-24T03:37:15.571Z,88.3
2019-01-24T03:38:15.838Z,88.6
2019-01-24T03:39:16.100Z,88.7
2019-01-24T03:40:15.408Z,88.8
2019-01-24T03:41:15.442Z,88.7
2019-01-24T03:42:15.713Z,88.6
2019-01-24T03:43:15.982Z,88.6
2019-01-24T03:44:16.249Z,89.1
2019-01-24T03:45:15.512Z,88.9
2019-01-24T03:46:15.777Z,88.3
2019-01-24T03:47:16.040Z,88.2
2019-01-24T03:48:16.297Z,88.2
2019-01-24T03:49:15.560Z,88.5
2019-01-24T03:50:15.823Z,88.3
2019-01-24T03:51:15.878Z,88.6
2019-01-24T03:52:16.147Z,89.0
2019-01-24T03:53:15.408Z,89.0
2019-01-24T03:54:15.679Z,88.7
2019-01-24T03:55:15.984Z,88.4
2019-01-24T03:56:16.246Z,88.2
2019-01-24T03:57:15.516Z,88.5
2019-01-24T03:58:15.789Z,88.6
2019-01-24T03:59:16.058Z,88.9
2019-01-24T04:00:15.354Z,88.8
2019-01-24T04:01:15.403Z,88.5
2019-01-24T04:02:15.668Z,88.8
2019-01-24T04:03:15.948Z,89.0
2019-01-24T04:04:16.209Z,88.8
2019-01-24T04:05:15.490Z,88.8
2019-01-24T04:06:15.756Z,88.8
2019-01-24T04:07:16.017Z,89.0
2019-01-24T04:08:16.283Z,88.9
2019-01-24T04:09:15.760Z,88.6
2019-01-24T04:10:16.039Z,88.7
2019-01-24T04:11:16.070Z,88.7
2019-01-24T04:12:15.322Z,88.8
2019-01-24T04:13:15.587Z,88.5
2019-01-24T04:14:15.872Z,88.4
2019-01-24T04:15:16.171Z,88.6
2019-01-24T04:16:15.455Z,88.8
2019-01-24T04:17:15.718Z,88.8
2019-01-24T04:18:16.009Z,88.9
2019-01-24T04:19:16.281Z,88.6
2019-01-24T04:20:15.561Z,88.7
2019-01-24T04:21:15.616Z,89.0
2019-01-24T04:22:15.891Z,88.7
2019-01-24T04:23:16.159Z,88.8
2019-01-24T04:24:15.410Z,88.9
2019-01-24T04:25:15.674Z,89.2
2019-01-24T04:26:15.946Z,89.0
2019-01-24T04:27:16.209Z,89.0
2019-01-24T04:28:15.469Z,88.9
2019-01-24T04:29:15.741Z,89.0
2019-01-24T04:30:16.025Z,89.0
2019-01-24T04:31:16.074Z,89.2
2019-01-24T04:32:15.331Z,88.9
2019-01-24T04:33:15.597Z,88.8
2019-01-24T04:34:15.864Z,88.8
2019-01-24T04:35:20.330Z,89.0
2019-01-24T04:36:15.647Z,89.0
2019-01-24T04:37:15.922Z,89.0
2019-01-24T04:38:16.505Z,89.2
2019-01-24T04:39:15.770Z,88.9
2019-01-24T04:40:16.043Z,89.2
2019-01-24T04:41:16.084Z,88.9
2019-01-24T04:42:15.343Z,88.8
2019-01-24T04:43:15.615Z,88.9
2019-01-24T04:44:16.050Z,88.8
2019-01-24T04:45:15.326Z,88.6
2019-01-24T04:46:15.594Z,89.1
2019-01-24T04:47:15.859Z,89.0
2019-01-24T04:48:16.557Z,88.8
2019-01-24T04:49:15.828Z,89.0
2019-01-24T04:50:16.100Z,88.9
2019-01-24T04:51:16.139Z,89.2
2019-01-24T04:52:15.421Z,89.3
2019-01-24T04:53:15.697Z,89.5
2019-01-24T04:54:15.975Z,89.5
2019-01-24T04:55:16.238Z,89.6
2019-01-24T04:56:15.504Z,89.3
2019-01-24T04:57:15.778Z,89.6
2019-01-24T04:58:16.052Z,89.7
2019-01-24T04:59:15.323Z,89.5
2019-01-24T05:00:15.607Z,89.5
2019-01-24T05:01:15.649Z,89.8
2019-01-24T05:02:15.925Z,89.7
2019-01-24T05:03:16.340Z,89.3
2019-01-24T05:04:15.613Z,89.4
2019-01-24T05:05:15.880Z,89.5
2019-01-24T05:06:16.155Z,89.7
2019-01-24T05:07:15.421Z,89.8
2019-01-24T05:08:15.685Z,89.8
2019-01-24T05:09:15.953Z,89.9
2019-01-24T05:10:16.228Z,90.1
2019-01-24T05:11:16.261Z,90.1
2019-01-24T05:12:15.535Z,90.2
2019-01-24T05:13:15.806Z,90.0
2019-01-24T05:14:16.081Z,90.0
2019-01-24T05:15:15.374Z,90.2
2019-01-24T05:16:15.636Z,90.1
2019-01-24T05:17:15.910Z,90.5
2019-01-24T05:18:16.190Z,90.3
2019-01-24T05:19:15.458Z,89.9
2019-01-24T05:20:15.738Z,90.1
2019-01-24T05:21:15.798Z,90.2
2019-01-24T05:22:16.066Z,90.3
2019-01-24T05:23:15.329Z,90.4
2019-01-24T05:24:15.598Z,90.3
2019-01-24T05:25:15.876Z,90.4
2019-01-24T05:26:16.153Z,90.5
2019-01-24T05:27:15.418Z,90.7
2019-01-24T05:28:15.682Z,90.9
2019-01-24T05:29:15.953Z,90.3
2019-01-24T05:30:16.244Z,90.3
2019-01-24T05:31:16.291Z,90.3
2019-01-24T05:32:15.559Z,90.4
2019-01-24T05:33:15.826Z,90.3
2019-01-24T05:34:16.085Z,90.3
2019-01-24T05:35:15.427Z,90.3
2019-01-24T05:36:15.863Z,90.6
2019-01-24T05:37:16.120Z,90.5
2019-01-24T05:38:15.387Z,90.7
2019-01-24T05:39:15.658Z,90.5
2019-01-24T05:40:15.927Z,90.8
2019-01-24T05:41:15.528Z,90.8
2019-01-24T05:42:15.792Z,90.8
2019-01-24T05:43:16.069Z,90.8
2019-01-24T05:44:15.351Z,90.8
2019-01-24T05:45:15.622Z,90.8
2019-01-24T05:46:15.883Z,90.8
2019-01-24T05:47:16.161Z,90.9
2019-01-24T05:48:15.426Z,91.0
2019-01-24T05:49:15.697Z,90.9
2019-01-24T05:50:15.982Z,91.2
2019-01-24T05:51:16.419Z,90.9
2019-01-24T05:52:20.015Z,91.0
2019-01-24T05:53:16.289Z,91.2
2019-01-24T05:54:15.567Z,91.2
2019-01-24T05:55:15.839Z,91.2
2019-01-24T05:56:16.114Z,91.4
2019-01-24T05:57:15.418Z,91.7
2019-01-24T05:58:15.691Z,91.8
2019-01-24T05:59:15.962Z,91.5
2019-01-24T06:00:16.578Z,91.7
2019-01-24T06:01:16.600Z,91.9
2019-01-24T06:02:15.871Z,92.0
2019-01-24T06:03:16.134Z,92.3
2019-01-24T06:04:15.405Z,92.5
2019-01-24T06:05:15.683Z,92.2
2019-01-24T06:06:15.945Z,92.2
2019-01-24T06:07:16.239Z,92.5
2019-01-24T06:08:15.504Z,92.7
2019-01-24T06:09:15.779Z,92.8
2019-01-24T06:10:16.058Z,93.0
2019-01-24T06:11:16.113Z,93.2
2019-01-24T06:12:15.390Z,93.2
2019-01-24T06:13:15.668Z,93.3
2019-01-24T06:14:15.937Z,93.2
2019-01-24T06:15:16.225Z,93.4
2019-01-24T06:16:15.505Z,93.5
2019-01-24T06:17:15.765Z,93.9
2019-01-24T06:18:16.025Z,93.8
2019-01-24T06:19:16.296Z,93.8
2019-01-24T06:20:15.589Z,93.8
2019-01-24T06:21:15.616Z,93.8
2019-01-24T06:22:15.887Z,94.0
2019-01-24T06:23:16.199Z,94.0
2019-01-24T06:24:15.480Z,93.9
2019-01-24T06:25:15.778Z,94.0
2019-01-24T06:26:16.042Z,94.2
2019-01-24T06:27:16.313Z,94.0
2019-01-24T06:28:15.579Z,94.1
2019-01-24T06:29:15.838Z,94.1
2019-01-24T06:30:16.126Z,94.2
2019-01-24T06:31:16.164Z,94.2
2019-01-24T06:32:15.431Z,94.2
2019-01-24T06:33:15.708Z,94.4
2019-01-24T06:34:15.971Z,94.2
2019-01-24T06:35:16.297Z,94.3
2019-01-24T06:36:15.574Z,94.2
2019-01-24T06:37:15.850Z,94.2
2019-01-24T06:38:16.101Z,94.3
2019-01-24T06:39:15.356Z,94.3
2019-01-24T06:40:15.640Z,94.3
2019-01-24T06:41:15.663Z,94.3
2019-01-24T06:42:15.930Z,94.2
2019-01-24T06:43:16.194Z,94.2
2019-01-24T06:44:15.460Z,94.2
2019-01-24T06:45:15.722Z,94.2
2019-01-24T06:46:15.986Z,94.2
2019-01-24T06:47:16.258Z,94.3
2019-01-24T06:48:15.532Z,94.2
2019-01-24T06:49:15.789Z,94.2
2019-01-24T06:50:16.073Z,94.2
2019-01-24T06:51:16.095Z,94.2
2019-01-24T06:52:15.365Z,94.2
2019-01-24T06:53:15.627Z,94.2
2019-01-24T06:54:15.889Z,94.2
2019-01-24T06:55:16.168Z,94.2
2019-01-24T06:56:15.433Z,94.2
2019-01-24T06:57:15.696Z,94.3
2019-01-24T06:58:15.963Z,94.3
2019-01-24T06:59:16.233Z,94.3
2019-01-24T07:00:15.530Z,94.3
2019-01-24T07:01:15.561Z,94.4
2019-01-24T07:02:15.837Z,94.3
2019-01-24T07:03:16.243Z,94.2
2019-01-24T07:04:15.512Z,94.2
2019-01-24T07:05:15.795Z,94.2
2019-01-24T07:06:16.058Z,94.0
2019-01-24T07:07:15.319Z,94.0
2019-01-24T07:08:15.581Z,94.0
2019-01-24T07:09:15.838Z,94.2
2019-01-24T07:10:16.125Z,94.3
2019-01-24T07:11:16.170Z,94.2
2019-01-24T07:12:15.430Z,94.2
2019-01-24T07:13:15.689Z,94.2
2019-01-24T07:14:15.944Z,94.3
2019-01-24T07:15:16.204Z,94.3
2019-01-24T07:16:15.476Z,94.2
2019-01-24T07:17:15.741Z,94.2
2019-01-24T07:18:16.003Z,94.0
2019-01-24T07:19:16.273Z,94.1
2019-01-24T07:20:15.547Z,94.2
2019-01-24T07:21:15.596Z,94.3
2019-01-24T07:22:15.853Z,94.3
2019-01-24T07:23:16.120Z,94.5
2019-01-24T07:24:15.385Z,94.5
2019-01-24T07:25:15.640Z,94.4
2019-01-24T07:26:15.911Z,94.2
2019-01-24T07:27:16.189Z,94.3
2019-01-24T07:28:15.451Z,94.4
2019-01-24T07:29:15.714Z,94.5
2019-01-24T07:30:15.982Z,94.5
2019-01-24T07:31:16.049Z,94.4
2019-01-24T07:32:15.313Z,94.2
2019-01-24T07:33:15.590Z,94.2
2019-01-24T07:34:15.856Z,94.2
2019-01-24T07:35:16.123Z,94.2
2019-01-24T07:36:15.378Z,94.2
2019-01-24T07:37:15.646Z,94.2
2019-01-24T07:38:15.916Z,94.2
2019-01-24T07:39:16.191Z,94.3
2019-01-24T07:40:15.471Z,94.3
2019-01-24T07:41:15.499Z,94.2
2019-01-24T07:42:15.754Z,94.2
2019-01-24T07:43:16.028Z,94.2
2019-01-24T07:44:16.621Z,94.2
2019-01-24T07:45:15.884Z,94.2
2019-01-24T07:46:16.144Z,94.2
2019-01-24T07:47:15.400Z,94.2
2019-01-24T07:48:15.666Z,94.3
2019-01-24T07:49:15.930Z,94.3
2019-01-24T07:50:16.213Z,94.3
2019-01-24T07:51:16.246Z,94.2
2019-01-24T07:52:15.522Z,94.2
2019-01-24T07:53:15.783Z,94.3
2019-01-24T07:54:16.047Z,94.4
2019-01-24T07:55:15.308Z,94.4
2019-01-24T07:56:15.570Z,94.5
2019-01-24T07:57:15.830Z,94.3
2019-01-24T07:58:16.084Z,94.2
2019-01-24T07:59:15.349Z,94.2
2019-01-24T08:00:15.869Z,94.1
2019-01-24T08:01:15.667Z,94.1
2019-01-24T08:02:15.929Z,93.9
2019-01-24T08:03:16.186Z,93.8
2019-01-24T08:04:15.454Z,93.8
2019-01-24T08:05:15.734Z,93.8
2019-01-24T08:06:16.001Z,93.8
2019-01-24T08:07:16.265Z,93.6
2019-01-24T08:08:15.525Z,93.5
2019-01-24T08:09:15.801Z,93.7
2019-01-24T08:10:16.069Z,93.8
2019-01-24T08:11:16.118Z,93.7
2019-01-24T08:12:15.380Z,93.5
2019-01-24T08:13:15.649Z,93.4
2019-01-24T08:14:15.909Z,93.3
2019-01-24T08:15:16.186Z,93.2
2019-01-24T08:16:15.457Z,93.2
2019-01-24T08:17:15.724Z,93.2
2019-01-24T08:18:15.986Z,93.3
2019-01-24T08:19:16.250Z,93.4
2019-01-24T08:20:15.537Z,93.3
2019-01-24T08:21:15.559Z,93.4
2019-01-24T08:22:15.840Z,93.4
2019-01-24T08:23:16.103Z,93.3
2019-01-24T08:24:15.368Z,93.4
2019-01-24T08:25:15.635Z,93.3
2019-01-24T08:26:15.900Z,93.3
2019-01-24T08:27:16.157Z,93.1
2019-01-24T08:28:15.411Z,93.0
2019-01-24T08:29:15.683Z,92.7
2019-01-24T08:30:15.967Z,92.6
2019-01-24T08:31:15.973Z,92.7
2019-01-24T08:32:16.230Z,92.8
2019-01-24T08:33:15.494Z,92.5
2019-01-24T08:34:15.757Z,92.3
2019-01-24T08:35:16.022Z,92.2
2019-01-24T08:36:16.286Z,92.3
2019-01-24T08:37:15.543Z,92.2
2019-01-24T08:38:15.815Z,92.0
2019-01-24T08:39:16.080Z,92.0
2019-01-24T08:40:15.353Z,91.9
2019-01-24T08:41:15.395Z,92.0
2019-01-24T08:42:15.667Z,92.0
2019-01-24T08:43:15.928Z,91.7
2019-01-24T08:44:16.202Z,91.6
2019-01-24T08:45:15.457Z,91.5
2019-01-24T08:46:15.723Z,91.4
2019-01-24T08:47:15.991Z,91.3
2019-01-24T08:48:16.264Z,91.2
2019-01-24T08:49:15.532Z,91.2
2019-01-24T08:50:15.804Z,91.3
2019-01-24T08:51:15.866Z,91.0
2019-01-24T08:52:16.120Z,90.8
2019-01-24T08:53:15.380Z,91.0
2019-01-24T08:54:15.640Z,90.8
2019-01-24T08:55:15.909Z,90.5
2019-01-24T08:56:16.192Z,90.1
2019-01-24T08:57:15.454Z,90.4
2019-01-24T08:58:15.723Z,90.5
2019-01-24T08:59:15.985Z,90.2
2019-01-24T09:00:16.260Z,89.8
2019-01-24T09:01:16.300Z,89.7
2019-01-24T09:02:15.565Z,89.5
2019-01-24T09:03:15.820Z,89.0
2019-01-24T09:04:16.084Z,88.5
2019-01-24T09:05:15.365Z,88.8
2019-01-24T09:06:15.635Z,88.5
2019-01-24T09:07:15.906Z,88.5
2019-01-24T09:08:16.170Z,88.0
2019-01-24T09:09:15.423Z,88.0
2019-01-24T09:10:15.687Z,87.4
2019-01-24T09:11:15.733Z,87.2
2019-01-24T09:12:16.013Z,87.3
2019-01-24T09:13:16.273Z,87.3
2019-01-24T09:14:15.531Z,86.7
2019-01-24T09:15:15.785Z,86.9
2019-01-24T09:16:16.045Z,86.6
2019-01-24T09:17:15.307Z,86.5
2019-01-24T09:18:15.570Z,86.4
2019-01-24T09:19:15.839Z,86.3
2019-01-24T09:20:16.105Z,86.4
2019-01-24T09:21:16.153Z,86.3
2019-01-24T09:22:15.419Z,86.4
2019-01-24T09:23:15.684Z,87.0
2019-01-24T09:24:15.950Z,87.2
2019-01-24T09:25:16.232Z,86.8
2019-01-24T09:26:15.502Z,86.4
2019-01-24T09:27:15.780Z,86.3
2019-01-24T09:28:16.057Z,86.3
2019-01-24T09:29:15.322Z,86.4
2019-01-24T09:30:15.601Z,86.2
2019-01-24T09:31:15.651Z,86.7
2019-01-24T09:32:15.911Z,86.9
2019-01-24T09:33:16.171Z,87.2
2019-01-24T09:34:15.441Z,88.0
2019-01-24T09:35:15.704Z,87.8
2019-01-24T09:36:15.971Z,87.4
2019-01-24T09:37:16.235Z,87.0
2019-01-24T09:38:15.504Z,86.7
2019-01-24T09:39:15.766Z,87.0
2019-01-24T09:40:16.040Z,87.5
2019-01-24T09:41:16.087Z,88.2
2019-01-24T09:42:15.353Z,88.2
2019-01-24T09:43:15.623Z,87.2
2019-01-24T09:44:15.873Z,86.7
2019-01-24T09:45:16.162Z,87.1
2019-01-24T09:46:15.420Z,87.5
2019-01-24T09:47:15.676Z,88.0
2019-01-24T09:48:15.938Z,88.1
2019-01-24T09:49:16.200Z,87.9
2019-01-24T09:50:15.467Z,87.3
2019-01-24T09:51:15.520Z,87.1
2019-01-24T09:52:15.786Z,87.1
2019-01-24T09:53:16.046Z,87.0
2019-01-24T09:54:15.314Z,86.8
2019-01-24T09:55:15.586Z,87.5
2019-01-24T09:56:15.851Z,87.3
2019-01-24T09:57:16.119Z,87.5
2019-01-24T09:58:15.383Z,87.8
2019-01-24T09:59:15.647Z,88.0
2019-01-24T10:00:15.922Z,88.2
2019-01-24T10:01:15.978Z,88.2
2019-01-24T10:02:16.528Z,87.5
2019-01-24T10:03:15.796Z,87.2
2019-01-24T10:04:16.062Z,87.4
2019-01-24T10:05:15.352Z,87.4
2019-01-24T10:06:15.634Z,87.9
2019-01-24T10:07:15.901Z,87.7
2019-01-24T10:08:16.172Z,88.2
2019-01-24T10:09:15.441Z,88.3
2019-01-24T10:10:15.729Z,88.5
2019-01-24T10:11:15.757Z,88.3
2019-01-24T10:12:16.031Z,87.4
2019-01-24T10:13:16.297Z,87.2
2019-01-24T10:14:15.572Z,87.2
2019-01-24T10:15:15.861Z,87.0
2019-01-24T10:16:16.127Z,87.3
2019-01-24T10:17:15.391Z,87.0
2019-01-24T10:18:21.830Z,87.1
2019-01-24T10:19:16.112Z,86.6
2019-01-24T10:20:15.386Z,86.3
2019-01-24T10:21:15.435Z,86.8
2019-01-24T10:22:15.705Z,86.5
2019-01-24T10:23:16.007Z,86.5
2019-01-24T10:24:16.276Z,86.9
2019-01-24T10:25:15.661Z,87.2
2019-01-24T10:26:15.927Z,87.2
2019-01-24T10:27:16.189Z,87.2
2019-01-24T10:28:15.453Z,87.1
2019-01-24T10:29:15.722Z,87.5
2019-01-24T10:30:16.016Z,87.5
2019-01-24T10:31:16.045Z,87.2
2019-01-24T10:32:15.313Z,86.5
2019-01-24T10:33:15.574Z,86.5
2019-01-24T10:34:15.852Z,86.7
2019-01-24T10:35:16.128Z,86.3
2019-01-24T10:36:15.390Z,85.9
2019-01-24T10:37:15.652Z,86.0
2019-01-24T10:38:15.913Z,86.0
2019-01-24T10:39:16.178Z,86.0
2019-01-24T10:40:15.475Z,86.3
2019-01-24T10:41:15.510Z,86.0
2019-01-24T10:42:15.773Z,86.4
2019-01-24T10:43:16.037Z,86.7
2019-01-24T10:44:15.310Z,86.7
2019-01-24T10:45:15.579Z,86.0
2019-01-24T10:46:15.847Z,86.0
2019-01-24T10:47:16.099Z,86.7
2019-01-24T10:48:15.368Z,86.2
2019-01-24T10:49:15.643Z,85.8
2019-01-24T10:50:15.915Z,85.8
2019-01-24T10:51:15.946Z,85.9
2019-01-24T10:52:16.213Z,86.0
2019-01-24T10:53:15.469Z,86.2
2019-01-24T10:54:15.739Z,86.4
2019-01-24T10:55:16.004Z,87.0
2019-01-24T10:56:16.271Z,87.0
2019-01-24T10:57:15.532Z,86.5
2019-01-24T10:58:15.793Z,87.0
2019-01-24T10:59:16.062Z,87.1
2019-01-24T11:00:15.359Z,86.8
2019-01-24T11:01:15.398Z,87.0
2019-01-24T11:02:15.667Z,87.2
2019-01-24T11:03:15.936Z,87.8
2019-01-24T11:04:16.211Z,88.1
2019-01-24T11:05:15.474Z,88.6
2019-01-24T11:06:15.731Z,88.8
2019-01-24T11:07:15.996Z,88.5
2019-01-24T11:08:16.303Z,88.0
2019-01-24T11:09:15.563Z,88.0
2019-01-24T11:10:15.841Z,88.6
2019-01-24T11:11:15.896Z,88.6
2019-01-24T11:12:16.151Z,88.2
2019-01-24T11:13:15.414Z,88.4
2019-01-24T11:14:15.683Z,88.8
2019-01-24T11:15:15.951Z,89.0
2019-01-24T11:16:16.217Z,88.7
2019-01-24T11:17:15.494Z,88.5
2019-01-24T11:18:15.774Z,88.7
2019-01-24T11:19:16.031Z,88.5
2019-01-24T11:20:16.341Z,88.7
2019-01-24T11:21:15.348Z,88.4
2019-01-24T11:22:15.616Z,88.9
2019-01-24T11:23:15.881Z,88.8
2019-01-24T11:24:16.140Z,88.2
2019-01-24T11:25:15.413Z,88.4
2019-01-24T11:26:15.694Z,88.4
2019-01-24T11:27:15.969Z,87.9
2019-01-24T11:28:16.229Z,88.0
2019-01-24T11:29:15.494Z,88.7
2019-01-24T11:30:15.791Z,88.8
2019-01-24T11:31:15.823Z,88.8
2019-01-24T11:32:16.086Z,88.9
2019-01-24T11:33:15.354Z,88.9
2019-01-24T11:34:16.075Z,88.2
2019-01-24T11:35:15.345Z,87.7
2019-01-24T11:36:15.608Z,87.7
2019-01-24T11:37:15.874Z,87.7
2019-01-24T11:38:16.141Z,87.2
2019-01-24T11:39:15.399Z,87.6
2019-01-24T11:40:15.668Z,87.5
2019-01-24T11:41:15.708Z,86.9
2019-01-24T11:42:15.979Z,86.7
2019-01-24T11:43:16.245Z,86.8
2019-01-24T11:44:15.511Z,87.0
2019-01-24T11:45:15.774Z,87.9
2019-01-24T11:46:16.034Z,88.2
2019-01-24T11:47:16.290Z,88.3
2019-01-24T11:48:15.553Z,88.2
2019-01-24T11:49:15.811Z,87.9
2019-01-24T11:50:16.088Z,87.8
2019-01-24T11:51:16.124Z,88.2
2019-01-24T11:52:15.397Z,87.4
2019-01-24T11:53:15.661Z,86.6
2019-01-24T11:54:15.922Z,86.2
2019-01-24T11:55:16.194Z,86.5
2019-01-24T11:56:15.463Z,86.5
2019-01-24T11:57:15.729Z,86.8
2019-01-24T11:58:15.997Z,86.7
2019-01-24T11:59:16.280Z,87.2
2019-01-24T12:00:15.558Z,87.5
2019-01-24T12:01:15.594Z,87.8
2019-01-24T12:02:15.862Z,88.1
2019-01-24T12:03:16.127Z,88.5
2019-01-24T12:04:15.395Z,88.5
2019-01-24T12:05:15.677Z,88.3
2019-01-24T12:06:15.952Z,88.8
2019-01-24T12:07:16.212Z,88.8
2019-01-24T12:08:15.470Z,88.7
2019-01-24T12:09:15.739Z,88.8
2019-01-24T12:10:16.020Z,88.9
2019-01-24T12:11:16.059Z,89.1
2019-01-24T12:12:15.319Z,89.2
2019-01-24T12:13:15.601Z,89.4
2019-01-24T12:14:15.876Z,89.6
2019-01-24T12:15:16.155Z,89.5
2019-01-24T12:16:15.418Z,89.3
2019-01-24T12:17:15.729Z,89.1
2019-01-24T12:18:15.991Z,89.2
2019-01-24T12:19:16.261Z,89.5
2019-01-24T12:20:15.535Z,89.5
2019-01-24T12:21:15.585Z,89.5
2019-01-24T12:22:15.854Z,89.8
2019-01-24T12:23:16.121Z,89.7
2019-01-24T12:24:15.383Z,89.8
2019-01-24T12:25:15.659Z,89.8
2019-01-24T12:26:15.924Z,89.7
2019-01-24T12:27:16.186Z,89.7
2019-01-24T12:28:15.448Z,89.7
2019-01-24T12:29:15.715Z,89.6
2019-01-24T12:30:16.009Z,89.3
2019-01-24T12:31:16.055Z,89.3
2019-01-24T12:32:15.327Z,89.2
2019-01-24T12:33:15.585Z,89.0
2019-01-24T12:34:15.848Z,89.0
2019-01-24T12:35:16.118Z,89.0
2019-01-24T12:36:15.402Z,88.8
2019-01-24T12:37:15.670Z,88.5
2019-01-24T12:38:15.945Z,88.7
2019-01-24T12:39:16.226Z,88.6
2019-01-24T12:40:15.490Z,88.5
2019-01-24T12:41:15.553Z,88.3
2019-01-24T12:42:15.824Z,88.6
2019-01-24T12:43:16.085Z,88.5
2019-01-24T12:44:15.358Z,88.5
2019-01-24T12:45:15.624Z,88.7
2019-01-24T12:46:15.882Z,87.8
2019-01-24T12:47:16.159Z,87.2
2019-01-24T12:48:15.429Z,87.2
2019-01-24T12:49:15.692Z,87.4
2019-01-24T12:50:15.959Z,87.2
2019-01-24T12:51:16.038Z,86.9
2019-01-24T12:52:15.318Z,86.6
2019-01-24T12:53:15.589Z,87.2
2019-01-24T12:54:15.855Z,87.2
2019-01-24T12:55:16.117Z,87.4
2019-01-24T12:56:15.375Z,87.8
2019-01-24T12:57:15.632Z,88.0
2019-01-24T12:58:15.934Z,87.5
2019-01-24T12:59:16.195Z,87.4
2019-01-24T13:00:15.470Z,87.7
2019-01-24T13:01:15.532Z,87.6
2019-01-24T13:02:15.795Z,87.7
2019-01-24T13:03:16.052Z,87.5
2019-01-24T13:04:15.319Z,87.8
2019-01-24T13:05:15.578Z,87.8
2019-01-24T13:06:15.838Z,87.8
2019-01-24T13:07:18.648Z,88.2
2019-01-24T13:08:15.924Z,88.3
2019-01-24T13:09:16.206Z,88.0
2019-01-24T13:10:15.501Z,88.0
2019-01-24T13:11:15.541Z,87.8
2019-01-24T13:12:15.814Z,87.8
2019-01-24T13:13:16.077Z,88.1
2019-01-24T13:14:15.344Z,88.2
2019-01-24T13:15:15.633Z,88.3
2019-01-24T13:16:15.906Z,88.4
2019-01-24T13:17:16.179Z,88.6
2019-01-24T13:18:15.454Z,88.5